Burns Pinion Ridge Reserve, California Weather observations

Data are for 10 minute period ending at time listed.
 Day   Time   Solar   Ave.   Ave.  Ave.  Vector  Max.   Baro.   Total    
  of    of     Rad.   Air    Rel.  Wind   Wind   Wind  Press.  Precip.   
Year   Day            Temp.  Hum.  Speed  Dir.   Gust                    
2017   (PST)  Kw/m2    F      %     mph   deg.    mph    mb.     in.     
-------------------------------------------------------------------------
  86    0:00   0.00   47.1    69    1.0   154     2.1   873.1    0.00 
  86    0:10   0.00   46.1    71    1.5   134     3.0   873.1    0.00 
  86    0:20   0.00   44.9    74    1.2    82     2.2   873.1    0.00 
  86    0:30   0.00   45.8    72    2.3   140     3.2   873.1    0.00 
  86    0:40   0.00   45.8    72    1.1    61     2.9   873.0    0.00 
  86    0:50   0.00   46.1    70    2.5   106     3.7   872.8    0.00 
  86    1:00   0.00   47.4    66    0.9    36     2.7   872.8    0.00 
  86    1:10   0.00   46.7    67    1.1   263     2.3   872.6    0.00 
  86    1:20   0.00   45.0    70    1.4   329     4.8   872.5    0.00 
  86    1:30   0.00   44.1    71    1.4   353     2.4   872.4    0.00 
  86    1:40   0.00   43.1    73    1.1   248     2.4   872.3    0.00 
  86    1:50   0.00   42.4    74    0.9   289     2.1   872.3    0.00 
  86    2:00   0.00   42.4    74    0.2   208     1.5   872.2    0.00 
  86    2:10   0.00   42.2    73    0.5   283     1.5   872.0    0.00 
  86    2:20   0.00   41.8    74    1.2   307     2.2   872.0    0.00 
  86    2:30   0.00   41.7    75    1.4   288     3.6   872.0    0.00 
  86    2:40   0.00   44.4    68    3.4    31     5.6   872.0    0.00 
  86    2:50   0.00   45.5    66    0.5    39     2.3   872.0    0.00 
  86    3:00   0.00   43.5    70    1.8    90     3.5   871.9    0.00 
  86    3:10   0.00   44.1    69    2.6   104     3.6   871.8    0.00 
  86    3:20   0.00   46.0    65    3.4   120     4.6   871.7    0.00 
  86    3:30   0.00   46.8    64    1.7    97     4.3   871.7    0.00 
  86    3:40   0.00   43.8    70    0.9   242     3.8   871.9    0.00 
  86    3:50   0.00   41.9    74    2.7   341     5.0   872.0    0.00 
  86    4:00   0.00   41.2    74    2.6   353     4.5   872.1    0.00 
  86    4:10   0.00   40.9    75    0.6     0     2.8   872.1    0.00 
  86    4:20   0.00   40.5    76    1.7    20     4.5   872.1    0.00 
  86    4:30   0.00   41.2    74    1.1    38     3.0   872.0    0.00 
  86    4:40   0.00   40.2    76    0.7    74     2.9   872.0    0.00 
  86    4:50   0.00   39.7    77    1.3   163     3.6   871.9    0.00 
  86    5:00   0.00   39.5    78    2.6   143     4.8   872.0    0.00 
  86    5:10   0.00   39.5    79    1.9   146     4.7   872.0    0.00 
  86    5:20   0.00   40.7    79    3.5   111     5.3   871.8    0.00 
  86    5:30   0.00   42.4    76    5.0   133     7.7   871.8    0.00 
  86    5:40   0.00   42.4    75    3.4     4     5.5   872.0    0.00 
  86    5:50   0.01   43.2    74    3.4    56     7.6   872.0    0.00 
  86    6:00   0.01   44.9    68    3.6    60     5.2   871.9    0.00 
  86    6:10   0.02   44.9    69    3.0    59     5.6   872.1    0.00 
  86    6:20   0.03   45.2    69    3.1    57     7.6   872.0    0.00 
  86    6:30   0.03   46.2    66    5.9    42     9.6   872.1    0.00 
  86    6:40   0.11   47.0    64    5.7    55     9.6   872.2    0.00 
  86    6:50   0.18   49.5    57    4.3    80     7.3   872.1    0.00 
  86    7:00   0.22   51.0    56    5.0   125     7.4   872.1    0.00 
  86    7:10   0.26   52.7    53    2.4   105     3.9   872.2    0.00 
  86    7:20   0.30   54.5    49    2.1   121     5.8   872.2    0.00 
  86    7:30   0.34   54.6    51    4.6   136     7.1   872.2    0.00 
  86    7:40   0.38   53.6    53    6.7   131     8.7   872.0    0.00 
  86    7:50   0.41   52.7    54    5.4    78    10.2   872.2    0.00 
  86    8:00   0.45   53.8    52    3.4    81     9.0   872.2    0.00 
  86    8:10   0.49   56.6    42    2.0    75     4.5   872.2    0.00 
  86    8:20   0.52   56.3    43    4.0    67     7.2   872.3    0.00 
  86    8:30   0.56   57.0    40    2.4    16     7.7   872.2    0.00 
  86    8:40   0.59   58.1    36    4.0    66     8.6   872.4    0.00 
  86    8:50   0.62   57.7    40    6.7   119    11.8   872.3    0.00 
  86    9:00   0.65   59.6    30    6.1   290    13.7   872.3    0.00 
  86    9:10   0.68   60.0    36    5.3   184    10.6   872.4    0.00 
  86    9:20   0.71   59.3    37    7.4   156    13.6   872.6    0.00 
  86    9:30   0.73   59.4    35    5.7   157    10.4   872.7    0.00 
  86    9:40   0.77   60.1    34    4.7   198     9.9   872.8    0.00 
  86    9:50   0.80   60.2    35    6.2   196    13.4   872.6    0.00 
  86   10:00   0.82   60.2    31    7.3   255    15.6   872.6    0.00 
  86   10:10   0.84   62.1    16    7.9   304    17.3   872.7    0.00 
  86   10:20   0.85   63.0    14   10.8   310    23.5   872.6    0.00 
  86   10:30   0.87   61.9    19   13.4   345    26.5   872.7    0.00 
  86   10:40   0.89   62.2    18   12.2   344    19.5   872.5    0.00 
  86   10:50   0.90   62.4    17   13.5   320    23.0   872.1    0.00 
  86   11:00   0.91   62.9    17   13.6   296    25.3   872.2    0.00 
  86   11:10   0.92   63.8    19   11.0   294    23.8   872.1    0.00 
  86   11:20   0.92   62.4    29   10.5   282    25.1   872.2    0.00 
  86   11:30   0.93   62.5    28    8.8   257    17.8   872.1    0.00 
  86   11:40   0.94   62.9    28    8.9   230    25.9   872.0    0.00 
  86   11:50   0.94   62.3    34    9.0   213    16.3   871.9    0.00 
  86   12:00   0.91   61.4    36    9.3   229    15.5   871.9    0.00 
  86   12:10   0.93   61.2    36    9.1   225    14.8   871.7    0.00 
  86   12:20   0.93   61.7    35    6.4   205    12.3   871.7    0.00 
  86   12:30   0.92   63.8    32    6.3   194    15.1   871.6    0.00 
  86   12:40   0.91   63.1    33    7.0   182    14.5   871.6    0.00 
  86   12:50   0.90   63.6    32    5.9   207    12.0   871.5    0.00 
  86   13:00   0.89   63.2    34    7.1   202    13.8   871.5    0.00 
  86   13:10   0.88   62.7    35    7.3   204    15.2   871.5    0.00 
  86   13:20   0.86   63.1    35    8.8   207    16.8   871.4    0.00 
  86   13:30   0.84   62.8    35    7.0   218    14.2   871.4    0.00 
  86   13:40   0.83   63.6    32    6.3   210    12.6   871.4    0.00 
  86   13:50   0.81   63.3    34    4.7   226     9.8   871.5    0.00 
  86   14:00   0.79   63.5    34    6.4   212    12.6   871.4    0.00 
  86   14:10   0.75   62.6    34    6.6   216    13.4   871.2    0.00 
  86   14:20   0.73   63.8    32    6.2   215    12.7   871.2    0.00 
  86   14:30   0.72   62.7    32    7.3   236    14.0   871.2    0.00 
  86   14:40   0.70   64.3    12   12.7   298    22.9   871.1    0.00 
  86   14:50   0.67   63.6    12   15.6   314    25.0   870.9    0.00 
  86   15:00   0.64   63.6    12   14.7   295    27.0   870.8    0.00 
  86   15:10   0.59   63.1    12   14.4   313    27.8   870.8    0.00 
  86   15:20   0.51   62.4    20   12.1   279    29.5   870.9    0.00 
  86   15:30   0.54   63.3    16   10.7   298    20.6   870.8    0.00 
  86   15:40   0.41   59.9    24   14.6   331    26.0   870.7    0.00 
  86   15:50   0.45   59.5    24   14.4   320    22.8   870.6    0.00 
  86   16:00   0.39   58.6    24   17.5   328    30.5   870.5    0.00 
  86   16:10   0.26   57.2    25   17.1   336    27.0   870.5    0.00 
  86   16:20   0.30   57.1    25   18.5   330    27.4   870.6    0.00 
  86   16:30   0.30   56.8    26   18.6   342    28.4   870.6    0.00 
  86   16:40   0.27   56.4    25   18.2   340    29.0   870.6    0.00 
  86   16:50   0.23   55.7    27   17.0   336    26.3   870.6    0.00 
  86   17:00   0.19   55.0    29   16.6   324    24.4   870.6    0.00 
  86   17:10   0.16   54.8    28   14.2   324    20.9   870.8    0.00 
  86   17:20   0.12   55.0    26   11.4   322    18.3   870.9    0.00 
  86   17:30   0.09   54.6    25   11.6   320    20.3   870.8    0.00 
  86   17:40   0.06   53.8    26    9.0   320    17.5   870.9    0.00 
  86   17:50   0.03   52.9    27    5.5   342    11.2   871.2    0.00 
  86   18:00   0.01   51.7    28    5.8   358     9.9   871.4    0.00 
  86   18:10   0.00   51.0    29    1.8   348     8.5   871.4    0.00 
  86   18:20   0.00   50.3    30    2.1   237     6.8   871.5    0.00 
  86   18:30   0.00   50.6    27    5.9   308     9.9   871.5    0.00 
  86   18:40   0.00   50.2    36    4.5   240     8.1   871.6    0.00 
  86   18:50   0.00   49.7    57    6.1   153    12.5   871.6    0.00 
  86   19:00   0.00   49.8    45    4.8   242     9.6   871.9    0.00 
  86   19:10   0.00   50.5    29    5.6   297    10.7   872.0    0.00 
  86   19:20   0.00   50.3    26    7.5   297    14.8   872.1    0.00 
  86   19:30   0.00   50.4    26    6.6   298    11.5   872.2    0.00 
  86   19:40   0.00   50.1    26    8.0   303    14.0   872.4    0.00 
  86   19:50   0.00   49.7    27    5.9   307     9.6   872.4    0.00 
  86   20:00   0.00   48.5    29    5.8   320    14.7   872.5    0.00 
  86   20:10   0.00   49.6    28    9.8   333    18.1   872.7    0.00 
  86   20:20   0.00   50.4    28   12.6   336    22.1   872.8    0.00 
  86   20:30   0.00   50.5    28   13.2   335    19.9   873.0    0.00 
  86   20:40   0.00   50.5    28   13.1   331    24.2   873.1    0.00 
  86   20:50   0.00   50.5    28   13.3   328    24.5   873.1    0.00 
  86   21:00   0.00   51.4    28   15.8   330    26.5   873.2    0.00 
  86   21:10   0.00   51.1    29   15.2   332    25.5   873.4    0.00 
  86   21:20   0.00   51.0    30   15.1   342    24.5   873.5    0.00 
  86   21:30   0.00   51.1    30   17.6   341    28.1   873.8    0.00 
  86   21:40   0.00   50.4    32   19.0   343    33.2   874.1    0.00 
  86   21:50   0.00   49.9    33   18.0   344    31.1   874.3    0.00 
  86   22:00   0.00   49.9    34   19.5   345    29.1   874.3    0.00 
  86   22:10   0.00   49.3    35   19.6   342    28.5   874.2    0.00 
  86   22:20   0.00   49.1    34   19.9   340    30.1   874.4    0.00 
  86   22:30   0.00   48.7    35   17.7   343    28.0   874.6    0.00 
  86   22:40   0.00   48.7    34   18.4   342    24.3   874.8    0.00 
  86   22:50   0.00   48.6    35   19.4   340    30.5   875.0    0.00 
  86   23:00   0.00   48.4    33   17.8   343    29.5   875.1    0.00 

Return to Burns Pinion Ridge Reserve graphs page.


Western Regional Climate Center,wrcc@dri.edu